Time;durP1;ratioP1;P1;durP2;ratioP2;P2;SDS_P1;SDS_P2;PMS_P1;PMS_P2;Temp;Humidity;BMP_temperature;BMP_pressure;BME280_temperature;BME280_humidity;BME280_pressure;Samples;Min_cycle;Max_cycle;Signal;HPM_P1;HPM_P2
2022/09/01 00:01:19;;;;;;;;;13.00;13.00;;;;;;;;5118427;27;45523;-68
2022/09/01 00:03:47;;;;;;;;;21.00;18.75;;;;;;;;5124530;27;45389;-66
2022/09/01 00:06:13;;;;;;;;;14.75;13.50;;;;;;;;5119168;27;45255;-66
2022/09/01 00:08:38;;;;;;;;;14.67;14.00;;;;;;;;5117813;27;45306;-66
2022/09/01 00:11:03;;;;;;;;;15.67;15.67;;;;;;;;5124220;27;45461;-67
2022/09/01 00:13:32;;;;;;;;;15.67;13.67;;;;;;;;5124908;27;46338;-67
2022/09/01 00:15:57;;;;;;;;;15.33;14.00;;;;;;;;5113403;27;45385;-67
2022/09/01 00:18:23;;;;;;;;;15.50;15.50;;;;;;;;5112174;27;45343;-67
2022/09/01 00:20:48;;;;;;;;;11.25;11.00;;;;;;;;5119694;27;45524;-67
2022/09/01 00:23:13;;;;;;;;;17.50;14.00;;;;;;;;5124946;27;45417;-67
2022/09/01 00:25:38;;;;;;;;;18.00;17.50;;;;;;;;5121069;27;45346;-67
2022/09/01 00:28:04;;;;;;;;;15.00;15.00;;;;;;;;5118106;27;45557;-67
2022/09/01 00:30:29;;;;;;;;;18.25;15.75;;;;;;;;5124326;27;46547;-67
2022/09/01 00:32:55;;;;;;;;;14.50;14.50;;;;;;;;5120781;27;45651;-67
2022/09/01 00:35:20;;;;;;;;;14.00;14.00;;;;;;;;5120500;27;45245;-67
2022/09/01 00:37:45;;;;;;;;;19.67;14.33;;;;;;;;5119742;27;45300;-67
2022/09/01 00:40:12;;;;;;;;;20.25;17.00;;;;;;;;5125767;27;45291;-67
2022/09/01 00:42:38;;;;;;;;;16.67;16.33;;;;;;;;5116932;27;47669;-67
2022/09/01 00:45:05;;;;;;;;;15.25;14.25;;;;;;;;5108099;27;45254;-67
2022/09/01 00:47:30;;;;;;;;;16.00;15.50;;;;;;;;5110420;27;45481;-67
2022/09/01 00:49:55;;;;;;;;;17.25;16.50;;;;;;;;5115609;27;45326;-67
2022/09/01 00:52:24;;;;;;;;;17.67;15.33;;;;;;;;5112781;27;45612;-67
2022/09/01 00:54:51;;;;;;;;;18.75;17.00;;;;;;;;5125042;27;45296;-67
2022/09/01 00:57:17;;;;;;;;;14.25;14.25;;;;;;;;5117495;27;45360;-67
2022/09/01 01:00:02;;;;;;;;;14.33;12.67;;;;;;;;5117095;27;45452;-67
2022/09/01 01:02:28;;;;;;;;;12.00;12.00;;;;;;;;5118551;27;47038;-67
2022/09/01 01:04:54;;;;;;;;;14.33;14.33;;;;;;;;5121618;27;45327;-67
2022/09/01 01:07:21;;;;;;;;;9.33;7.67;;;;;;;;5116013;27;45455;-67
2022/09/01 01:09:47;;;;;;;;;16.33;15.33;;;;;;;;5124076;27;45338;-67
2022/09/01 01:12:17;;;;;;;;;13.00;13.00;;;;;;;;5116616;27;45447;-66
2022/09/01 01:14:44;;;;;;;;;13.67;13.67;;;;;;;;5117458;27;45307;-67
2022/09/01 01:17:10;;;;;;;;;15.00;15.00;;;;;;;;5113864;27;45422;-67
2022/09/01 01:25:21;;;;;;;;;12.33;12.33;;;;;;;;5115368;27;45407;-67
2022/09/01 01:27:46;;;;;;;;;18.00;16.50;;;;;;;;5116882;27;45621;-67
2022/09/01 01:30:12;;;;;;;;;11.33;11.33;;;;;;;;5118400;27;45299;-67
2022/09/01 01:32:41;;;;;;;;;9.00;9.00;;;;;;;;5118814;27;45407;-67
2022/09/01 01:35:11;;;;;;;;;15.50;14.25;;;;;;;;5113098;27;46219;-67
2022/09/01 01:37:37;;;;;;;;;14.50;13.75;;;;;;;;5118841;27;45295;-67
2022/09/01 01:40:03;;;;;;;;;12.33;11.67;;;;;;;;5119088;27;45498;-67
2022/09/01 01:42:29;;;;;;;;;17.00;13.33;;;;;;;;5118375;27;47934;-67
2022/09/01 01:44:54;;;;;;;;;20.33;16.00;;;;;;;;5117323;27;45350;-67
2022/09/01 01:47:20;;;;;;;;;12.50;12.50;;;;;;;;5119156;27;45362;-67
2022/09/01 01:49:45;;;;;;;;;14.00;12.33;;;;;;;;5107447;27;45449;-67
2022/09/01 01:52:15;;;;;;;;;13.00;12.67;;;;;;;;5115007;27;45470;-67
2022/09/01 01:54:40;;;;;;;;;13.75;12.50;;;;;;;;5110297;27;45636;-67
2022/09/01 01:57:06;;;;;;;;;12.75;11.75;;;;;;;;5111589;27;45429;-67
2022/09/01 01:59:32;;;;;;;;;15.25;14.50;;;;;;;;5112781;27;45170;-67
2022/09/01 02:01:59;;;;;;;;;8.33;7.67;;;;;;;;5115427;27;45321;-67
2022/09/01 02:04:26;;;;;;;;;14.67;13.33;;;;;;;;5119471;27;45369;-67
2022/09/01 02:06:51;;;;;;;;;13.00;13.00;;;;;;;;5117930;27;45292;-67
2022/09/01 02:09:19;;;;;;;;;14.00;14.00;;;;;;;;5114479;27;45274;-67
2022/09/01 02:11:44;;;;;;;;;16.75;15.50;;;;;;;;5118165;27;45492;-67
2022/09/01 02:14:12;;;;;;;;;15.75;14.25;;;;;;;;5116499;27;45380;-67
2022/09/01 02:16:38;;;;;;;;;14.00;13.00;;;;;;;;5117782;27;45351;-67
2022/09/01 02:19:06;;;;;;;;;14.67;13.00;;;;;;;;5121980;27;45270;-67
2022/09/01 02:21:31;;;;;;;;;14.00;14.00;;;;;;;;5117819;27;46132;-66
2022/09/01 02:24:01;;;;;;;;;9.25;8.75;;;;;;;;5122733;27;45378;-66
2022/09/01 02:26:31;;;;;;;;;14.00;14.00;;;;;;;;5107525;27;45382;-66
2022/09/01 02:29:00;;;;;;;;;12.67;12.33;;;;;;;;5118443;27;45443;-66
2022/09/01 02:31:26;;;;;;;;;14.00;13.33;;;;;;;;5113537;27;46138;-66
2022/09/01 02:33:53;;;;;;;;;10.67;9.00;;;;;;;;5121383;27;45368;-66
2022/09/01 02:36:19;;;;;;;;;13.67;13.33;;;;;;;;5115476;27;45255;-66
2022/09/01 02:38:47;;;;;;;;;15.67;14.33;;;;;;;;5118224;27;45207;-66
2022/09/01 02:41:13;;;;;;;;;13.00;13.00;;;;;;;;5119695;27;45386;-66
2022/09/01 02:43:41;;;;;;;;;12.67;11.33;;;;;;;;5119000;27;45391;-66
2022/09/01 02:46:07;;;;;;;;;12.00;12.00;;;;;;;;5111975;27;45376;-67
2022/09/01 02:48:36;;;;;;;;;10.67;10.67;;;;;;;;5124326;27;45604;-66
2022/09/01 02:51:06;;;;;;;;;14.00;13.33;;;;;;;;5120740;27;47116;-66
2022/09/01 02:53:35;;;;;;;;;15.33;12.67;;;;;;;;5121198;27;45174;-67
2022/09/01 02:56:01;;;;;;;;;14.50;12.75;;;;;;;;5116108;27;45261;-66
2022/09/01 02:58:27;;;;;;;;;12.67;11.33;;;;;;;;5122584;27;45566;-66
2022/09/01 03:00:53;;;;;;;;;14.67;11.67;;;;;;;;5118603;27;46477;-67
2022/09/01 03:03:20;;;;;;;;;14.67;14.33;;;;;;;;5122870;27;45311;-67
2022/09/01 03:05:46;;;;;;;;;15.00;14.50;;;;;;;;5121270;27;45294;-67
2022/09/01 03:08:14;;;;;;;;;15.33;13.33;;;;;;;;5115837;27;45470;-67
2022/09/01 03:10:40;;;;;;;;;11.67;9.33;;;;;;;;5105905;27;45382;-66
2022/09/01 03:13:17;;;;;;;;;12.67;12.33;;;;;;;;5116601;27;45647;-67
2022/09/01 03:15:42;;;;;;;;;10.67;10.67;;;;;;;;5104210;27;45316;-67
2022/09/01 03:18:09;;;;;;;;;12.50;12.25;;;;;;;;5115586;27;45387;-67
2022/09/01 03:20:35;;;;;;;;;12.33;10.67;;;;;;;;5111900;27;45461;-67
2022/09/01 03:23:03;;;;;;;;;13.33;11.67;;;;;;;;5115145;27;45453;-67
2022/09/01 03:25:29;;;;;;;;;14.33;13.67;;;;;;;;5113521;27;45267;-67
2022/09/01 03:27:56;;;;;;;;;13.67;11.67;;;;;;;;5120932;27;45396;-67
2022/09/01 03:30:22;;;;;;;;;10.75;8.00;;;;;;;;5117877;27;47610;-67
2022/09/01 03:32:47;;;;;;;;;11.33;11.33;;;;;;;;5125026;27;45477;-68
2022/09/01 03:35:13;;;;;;;;;12.75;12.75;;;;;;;;5123968;27;45378;-68
2022/09/01 03:37:38;;;;;;;;;13.00;11.33;;;;;;;;5121179;27;45441;-68
2022/09/01 03:40:04;;;;;;;;;13.00;12.67;;;;;;;;5123559;27;45490;-68
2022/09/01 03:42:30;;;;;;;;;16.00;15.67;;;;;;;;5117282;27;45359;-68
2022/09/01 03:44:56;;;;;;;;;15.67;15.33;;;;;;;;5113910;27;45164;-66
2022/09/01 03:47:23;;;;;;;;;15.00;14.33;;;;;;;;5123730;27;45208;-67
2022/09/01 03:49:48;;;;;;;;;11.67;11.67;;;;;;;;5121367;27;45254;-66
2022/09/01 03:52:16;;;;;;;;;16.67;15.33;;;;;;;;5122250;27;45242;-66
2022/09/01 03:54:42;;;;;;;;;14.75;14.75;;;;;;;;5121790;27;45603;-66
2022/09/01 03:57:08;;;;;;;;;17.00;15.25;;;;;;;;5123613;27;45479;-67
2022/09/01 03:59:34;;;;;;;;;14.33;14.33;;;;;;;;5123029;27;47151;-67
2022/09/01 04:02:01;;;;;;;;;19.00;14.75;;;;;;;;5119420;27;45372;-67
2022/09/01 04:04:30;;;;;;;;;13.67;12.67;;;;;;;;5122352;27;45246;-68
2022/09/01 04:06:55;;;;;;;;;16.25;15.25;;;;;;;;5120935;27;45551;-68
2022/09/01 04:09:20;;;;;;;;;12.00;12.00;;;;;;;;5115158;27;46287;-68
2022/09/01 04:11:45;;;;;;;;;20.50;20.50;;;;;;;;5111283;27;45484;-67
2022/09/01 04:14:11;;;;;;;;;17.25;15.25;;;;;;;;5116503;27;45365;-67
2022/09/01 04:19:25;;;;;;;;;14.75;14.00;;;;;;;;5117472;27;45470;-67
2022/09/01 04:21:53;;;;;;;;;17.00;17.00;;;;;;;;5113001;27;45406;-67
2022/09/01 04:24:18;;;;;;;;;13.75;13.75;;;;;;;;5120753;27;45449;-68
2022/09/01 04:26:45;;;;;;;;;15.25;14.00;;;;;;;;5115156;27;45212;-68
2022/09/01 04:29:11;;;;;;;;;15.25;15.25;;;;;;;;5120956;27;46958;-68
2022/09/01 04:31:37;;;;;;;;;27.50;19.75;;;;;;;;5114747;27;45443;-68
2022/09/01 04:34:08;;;;;;;;;16.67;15.33;;;;;;;;5122779;27;45334;-68
2022/09/01 04:36:34;;;;;;;;;17.00;17.00;;;;;;;;5118868;27;46149;-68
2022/09/01 04:39:01;;;;;;;;;13.67;13.00;;;;;;;;5124097;27;46439;-68
2022/09/01 04:41:31;;;;;;;;;14.00;14.00;;;;;;;;5118455;27;47036;-66
2022/09/01 04:43:57;;;;;;;;;18.00;15.75;;;;;;;;5123366;27;45524;-67
2022/09/01 04:46:27;;;;;;;;;17.00;14.67;;;;;;;;5121782;27;45330;-67
2022/09/01 04:48:53;;;;;;;;;14.00;14.00;;;;;;;;5116717;27;46199;-68
2022/09/01 04:51:19;;;;;;;;;21.00;17.25;;;;;;;;5117480;27;45356;-66
2022/09/01 04:53:47;;;;;;;;;17.50;17.50;;;;;;;;5116035;27;45452;-67
2022/09/01 04:56:13;;;;;;;;;16.25;16.25;;;;;;;;5113613;27;45439;-68
2022/09/01 04:58:38;;;;;;;;;17.33;16.33;;;;;;;;5124094;27;45965;-67
2022/09/01 05:01:12;;;;;;;;;15.00;14.33;;;;;;;;5114869;27;45302;-68
2022/09/01 05:03:38;;;;;;;;;21.67;18.33;;;;;;;;5120630;27;45243;-66
2022/09/01 05:06:03;;;;;;;;;12.00;12.00;;;;;;;;5117953;27;45607;-68
2022/09/01 05:08:29;;;;;;;;;12.33;12.33;;;;;;;;5116808;27;46429;-68
2022/09/01 05:10:55;;;;;;;;;16.75;14.75;;;;;;;;5120057;27;45283;-66
2022/09/01 05:13:21;;;;;;;;;15.75;15.75;;;;;;;;5118131;27;45490;-66
2022/09/01 05:15:47;;;;;;;;;15.25;15.00;;;;;;;;5123179;27;45327;-68
2022/09/01 05:18:22;;;;;;;;;18.00;16.33;;;;;;;;5118392;27;45245;-66
2022/09/01 05:20:48;;;;;;;;;17.00;16.50;;;;;;;;5108768;27;45477;-66
2022/09/01 05:23:16;;;;;;;;;19.75;19.25;;;;;;;;5118176;27;45331;-67
2022/09/01 05:25:42;;;;;;;;;21.00;16.33;;;;;;;;5113926;27;45339;-67
2022/09/01 05:28:08;;;;;;;;;16.75;15.00;;;;;;;;5121188;27;47492;-67
2022/09/01 05:30:35;;;;;;;;;15.67;15.67;;;;;;;;5121664;27;45280;-66
2022/09/01 05:33:00;;;;;;;;;16.75;15.25;;;;;;;;5118198;27;45534;-66
2022/09/01 05:35:26;;;;;;;;;15.33;13.67;;;;;;;;5117110;27;45331;-66
2022/09/01 05:37:52;;;;;;;;;15.00;15.00;;;;;;;;5116225;27;46506;-66
2022/09/01 05:40:17;;;;;;;;;17.00;16.25;;;;;;;;5118761;27;45370;-67
2022/09/01 05:42:42;;;;;;;;;14.33;13.00;;;;;;;;5117633;27;45824;-74
2022/09/01 05:45:10;;;;;;;;;16.00;14.50;;;;;;;;5122267;27;45519;-67
2022/09/01 05:47:36;;;;;;;;;17.50;17.25;;;;;;;;5116914;27;48003;-67
2022/09/01 05:50:02;;;;;;;;;17.00;15.75;;;;;;;;5117987;27;45278;-68
2022/09/01 05:52:30;;;;;;;;;21.50;18.50;;;;;;;;5116703;27;45406;-66
2022/09/01 05:54:58;;;;;;;;;17.50;16.00;;;;;;;;5109853;27;45710;-67
2022/09/01 05:57:24;;;;;;;;;23.25;18.25;;;;;;;;5110292;27;45650;-68
2022/09/01 05:59:52;;;;;;;;;14.33;13.00;;;;;;;;5113607;27;45209;-67
2022/09/01 06:02:18;;;;;;;;;20.00;15.00;;;;;;;;5111665;27;45392;-67
2022/09/01 06:04:43;;;;;;;;;18.25;15.00;;;;;;;;5123007;27;45369;-66
2022/09/01 06:07:13;;;;;;;;;14.25;14.25;;;;;;;;5113312;27;45447;-66
2022/09/01 06:09:40;;;;;;;;;15.00;13.25;;;;;;;;5117521;27;45408;-67
2022/09/01 06:12:06;;;;;;;;;16.75;15.25;;;;;;;;5113593;27;45233;-67
2022/09/01 06:14:31;;;;;;;;;17.67;16.33;;;;;;;;5120637;27;45304;-66
2022/09/01 06:16:57;;;;;;;;;17.67;14.67;;;;;;;;5110466;27;46392;-67
2022/09/01 06:19:23;;;;;;;;;17.50;15.50;;;;;;;;5110747;27;45361;-67
2022/09/01 06:21:48;;;;;;;;;14.33;14.33;;;;;;;;5108617;27;45422;-66
2022/09/01 06:24:13;;;;;;;;;12.67;12.33;;;;;;;;5114192;27;45379;-65
2022/09/01 06:26:39;;;;;;;;;18.00;18.00;;;;;;;;5108677;27;45429;-66
2022/09/01 06:29:06;;;;;;;;;17.25;16.25;;;;;;;;5116232;27;45332;-66
2022/09/01 06:31:33;;;;;;;;;16.75;16.25;;;;;;;;5109924;27;45450;-66
2022/09/01 06:33:59;;;;;;;;;18.75;16.25;;;;;;;;5119351;27;45559;-67
2022/09/01 06:36:24;;;;;;;;;17.25;16.00;;;;;;;;5113220;27;46155;-66
2022/09/01 06:38:51;;;;;;;;;22.00;18.25;;;;;;;;5118955;27;45290;-66
2022/09/01 06:41:18;;;;;;;;;13.67;13.67;;;;;;;;5106138;27;45437;-67
2022/09/01 06:43:44;;;;;;;;;20.50;18.25;;;;;;;;5119236;27;45442;-66
2022/09/01 06:46:10;;;;;;;;;14.33;11.33;;;;;;;;5108749;27;45334;-66
2022/09/01 06:48:40;;;;;;;;;16.75;15.25;;;;;;;;5115053;27;45486;-66
2022/09/01 06:51:08;;;;;;;;;16.00;13.25;;;;;;;;5118847;27;45455;-67
2022/09/01 06:53:33;;;;;;;;;14.75;13.25;;;;;;;;5115406;27;45239;-65
2022/09/01 06:55:58;;;;;;;;;11.67;9.67;;;;;;;;5106420;27;45315;-66
2022/09/01 06:58:24;;;;;;;;;19.33;15.00;;;;;;;;5110483;27;45439;-65
2022/09/01 07:00:50;;;;;;;;;16.00;15.50;;;;;;;;5105235;27;45377;-65
2022/09/01 07:03:16;;;;;;;;;16.25;16.25;;;;;;;;5109899;27;45345;-66
2022/09/01 07:05:43;;;;;;;;;15.50;15.50;;;;;;;;5103810;27;45569;-65
2022/09/01 07:08:09;;;;;;;;;15.33;14.00;;;;;;;;5111291;27;45473;-65
2022/09/01 07:10:43;;;;;;;;;15.67;13.33;;;;;;;;5116591;27;45343;-65
2022/09/01 07:13:09;;;;;;;;;14.33;12.67;;;;;;;;5114839;27;45339;-67
2022/09/01 07:15:38;;;;;;;;;16.67;13.00;;;;;;;;5119040;27;45486;-67
2022/09/01 07:18:05;;;;;;;;;14.00;14.00;;;;;;;;5113390;27;45399;-67
2022/09/01 07:20:34;;;;;;;;;14.67;13.00;;;;;;;;5121927;27;45384;-67
2022/09/01 07:23:00;;;;;;;;;13.00;13.00;;;;;;;;5112187;27;45300;-67
2022/09/01 07:25:26;;;;;;;;;17.50;15.00;;;;;;;;5111983;27;46608;-67
2022/09/01 07:27:51;;;;;;;;;16.33;16.33;;;;;;;;5113223;27;45215;-68
2022/09/01 07:30:17;;;;;;;;;13.00;13.00;;;;;;;;5113345;27;45441;-67
2022/09/01 07:32:43;;;;;;;;;18.25;15.25;;;;;;;;5116922;27;45267;-67
2022/09/01 07:35:09;;;;;;;;;12.33;12.33;;;;;;;;5104976;27;46061;-67
2022/09/01 07:37:37;;;;;;;;;14.67;12.67;;;;;;;;5113677;27;45173;-67
2022/09/01 07:40:05;;;;;;;;;12.67;10.67;;;;;;;;5115826;27;45253;-66
2022/09/01 07:42:30;;;;;;;;;16.33;12.00;;;;;;;;5117451;27;45474;-69
2022/09/01 07:44:57;;;;;;;;;12.00;11.67;;;;;;;;5118591;27;45249;-67
2022/09/01 07:47:22;;;;;;;;;10.00;9.67;;;;;;;;5117016;27;45439;-67
2022/09/01 07:49:47;;;;;;;;;11.67;11.67;;;;;;;;5119861;27;45230;-66
2022/09/01 07:52:12;;;;;;;;;11.33;11.33;;;;;;;;5113809;27;45496;-67
2022/09/01 07:54:38;;;;;;;;;13.67;13.33;;;;;;;;5110768;27;46387;-66
2022/09/01 07:57:04;;;;;;;;;12.50;12.25;;;;;;;;5110673;27;45419;-66
2022/09/01 07:59:30;;;;;;;;;14.67;12.33;;;;;;;;5109915;27;45237;-67
2022/09/01 08:01:56;;;;;;;;;15.25;15.25;;;;;;;;5113664;27;46043;-67
2022/09/01 08:04:21;;;;;;;;;10.00;10.00;;;;;;;;5111208;27;45505;-67
2022/09/01 08:06:47;;;;;;;;;14.00;14.00;;;;;;;;5114235;27;45372;-67
2022/09/01 08:09:12;;;;;;;;;12.67;10.00;;;;;;;;5117260;27;45348;-67
2022/09/01 08:11:37;;;;;;;;;17.00;16.25;;;;;;;;5120179;27;45307;-67
2022/09/01 08:14:02;;;;;;;;;12.33;12.33;;;;;;;;5118196;27;46475;-67
2022/09/01 08:16:29;;;;;;;;;11.33;11.00;;;;;;;;5119043;27;45375;-67
2022/09/01 08:18:54;;;;;;;;;14.67;13.33;;;;;;;;5120554;27;45378;-66
2022/09/01 08:21:20;;;;;;;;;14.33;14.33;;;;;;;;5115088;27;45303;-66
2022/09/01 08:23:46;;;;;;;;;13.00;12.00;;;;;;;;5118053;27;45371;-67
2022/09/01 08:26:13;;;;;;;;;16.75;16.00;;;;;;;;5116769;27;45275;-67
2022/09/01 08:28:39;;;;;;;;;12.00;11.67;;;;;;;;5119253;27;45333;-67
2022/09/01 08:31:05;;;;;;;;;13.67;13.67;;;;;;;;5120422;27;45337;-66
2022/09/01 08:33:33;;;;;;;;;13.33;13.33;;;;;;;;5119979;27;45491;-67
2022/09/01 08:35:59;;;;;;;;;12.00;12.00;;;;;;;;5122957;27;45381;-68
2022/09/01 08:38:24;;;;;;;;;17.00;15.75;;;;;;;;5119408;27;45342;-67
2022/09/01 08:40:53;;;;;;;;;14.50;13.25;;;;;;;;5106137;27;45613;-66
2022/09/01 08:43:25;;;;;;;;;15.67;12.33;;;;;;;;5113297;27;46551;-68
2022/09/01 08:45:56;;;;;;;;;9.33;9.33;;;;;;;;5108886;27;45450;-67
2022/09/01 08:48:27;;;;;;;;;12.00;12.00;;;;;;;;5116031;27;45358;-68
2022/09/01 08:50:55;;;;;;;;;16.00;14.33;;;;;;;;5117632;27;45521;-67
2022/09/01 08:53:30;;;;;;;;;12.00;12.00;;;;;;;;5120500;27;45507;-67
2022/09/01 08:55:56;;;;;;;;;17.00;15.75;;;;;;;;5108525;27;45581;-67
2022/09/01 08:58:22;;;;;;;;;13.75;12.25;;;;;;;;5123658;27;45332;-68
2022/09/01 09:00:54;;;;;;;;;14.00;12.67;;;;;;;;5111368;27;45357;-66
2022/09/01 09:03:41;;;;;;;;;13.33;13.00;;;;;;;;5112956;27;45468;-67
2022/09/01 09:06:18;;;;;;;;;11.67;11.67;;;;;;;;5115563;27;45504;-67
2022/09/01 09:08:52;;;;;;;;;12.00;11.00;;;;;;;;5115429;27;45415;-66
2022/09/01 09:11:26;;;;;;;;;13.33;12.00;;;;;;;;5118796;27;45521;-67
2022/09/01 09:13:57;;;;;;;;;12.33;12.33;;;;;;;;5117347;27;46102;-66
2022/09/01 09:16:26;;;;;;;;;15.00;15.00;;;;;;;;5118548;27;45394;-68
2022/09/01 09:18:54;;;;;;;;;11.00;11.00;;;;;;;;5120587;27;45635;-67
2022/09/01 09:21:22;;;;;;;;;14.33;11.33;;;;;;;;5120179;27;45633;-68
2022/09/01 09:23:53;;;;;;;;;9.00;9.00;;;;;;;;5118159;27;45561;-68
2022/09/01 09:26:19;;;;;;;;;13.00;10.00;;;;;;;;5108801;27;45446;-68
2022/09/01 09:28:48;;;;;;;;;11.33;10.00;;;;;;;;5119613;27;45573;-67
2022/09/01 09:31:34;;;;;;;;;14.00;13.33;;;;;;;;5110156;27;45271;-67
2022/09/01 09:33:59;;;;;;;;;11.33;9.67;;;;;;;;5119965;27;48119;-66
2022/09/01 09:36:34;;;;;;;;;14.67;13.67;;;;;;;;5111139;27;45277;-66
2022/09/01 09:39:03;;;;;;;;;15.25;15.25;;;;;;;;5114688;27;45318;-67
2022/09/01 09:41:28;;;;;;;;;11.67;11.67;;;;;;;;5112887;27;45304;-66
2022/09/01 09:43:58;;;;;;;;;12.33;12.33;;;;;;;;5122921;27;45463;-66
2022/09/01 09:46:23;;;;;;;;;14.00;12.00;;;;;;;;5116610;27;45428;-66
2022/09/01 09:49:04;;;;;;;;;10.75;10.75;;;;;;;;5123326;27;45327;-66
2022/09/01 09:51:30;;;;;;;;;14.75;14.75;;;;;;;;5114975;27;45394;-67
2022/09/01 09:54:09;;;;;;;;;7.00;5.00;;;;;;;;5116317;27;47198;-67
2022/09/01 09:56:34;;;;;;;;;13.50;13.00;;;;;;;;5114745;27;45394;-66
2022/09/01 09:59:00;;;;;;;;;19.00;11.33;;;;;;;;5112830;27;45322;-66
2022/09/01 10:01:25;;;;;;;;;12.25;11.75;;;;;;;;5119845;27;45304;-67
2022/09/01 10:03:58;;;;;;;;;12.67;10.33;;;;;;;;5108188;27;45997;-66
2022/09/01 10:06:30;;;;;;;;;14.67;14.67;;;;;;;;5111874;27;45245;-66
2022/09/01 10:08:56;;;;;;;;;14.50;13.25;;;;;;;;5112741;27;45431;-67
2022/09/01 10:11:41;;;;;;;;;11.50;11.50;;;;;;;;5106507;27;45483;-67
2022/09/01 10:14:15;;;;;;;;;10.33;10.33;;;;;;;;5111293;27;46163;-66
2022/09/01 10:16:41;;;;;;;;;12.00;12.00;;;;;;;;5110577;27;45355;-68
2022/09/01 10:19:10;;;;;;;;;13.50;12.25;;;;;;;;5120008;27;45223;-68
2022/09/01 10:21:43;;;;;;;;;12.33;12.00;;;;;;;;5116452;27;45389;-67
2022/09/01 10:24:12;;;;;;;;;14.50;14.50;;;;;;;;5121500;27;45668;-66
2022/09/01 10:26:38;;;;;;;;;13.25;11.75;;;;;;;;5119113;27;45529;-67
2022/09/01 10:29:03;;;;;;;;;9.67;9.00;;;;;;;;5121642;27;45383;-67
2022/09/01 10:31:29;;;;;;;;;16.00;15.75;;;;;;;;5120785;27;45434;-67
2022/09/01 10:33:54;;;;;;;;;11.00;11.00;;;;;;;;5121948;27;45358;-67
2022/09/01 10:36:21;;;;;;;;;12.75;11.50;;;;;;;;5121117;27;45441;-67
2022/09/01 10:38:47;;;;;;;;;8.33;8.00;;;;;;;;5121766;27;45681;-67
2022/09/01 10:41:33;;;;;;;;;10.00;10.00;;;;;;;;5120872;27;45449;-67
2022/09/01 10:44:07;;;;;;;;;11.00;10.67;;;;;;;;5121208;27;46154;-67
2022/09/01 10:46:32;;;;;;;;;9.67;9.67;;;;;;;;5119769;27;45308;-66
2022/09/01 10:48:58;;;;;;;;;13.33;12.33;;;;;;;;5122715;27;45367;-66
2022/09/01 10:51:23;;;;;;;;;13.50;12.00;;;;;;;;5118133;27;45383;-66
2022/09/01 10:53:49;;;;;;;;;14.33;12.67;;;;;;;;5121113;27;46552;-66
2022/09/01 10:56:17;;;;;;;;;14.67;8.33;;;;;;;;5116901;27;46866;-66
2022/09/01 10:59:01;;;;;;;;;10.00;9.00;;;;;;;;5122283;27;45470;-67
2022/09/01 11:01:38;;;;;;;;;9.33;8.00;;;;;;;;5120163;27;45711;-67
2022/09/01 11:04:04;;;;;;;;;8.33;8.33;;;;;;;;5121275;27;45972;-67
2022/09/01 11:06:30;;;;;;;;;9.25;8.25;;;;;;;;5118971;27;46173;-67
2022/09/01 11:08:59;;;;;;;;;7.25;7.25;;;;;;;;5121959;27;45378;-66
2022/09/01 11:11:30;;;;;;;;;5.00;4.75;;;;;;;;5120405;27;45369;-67
2022/09/01 11:13:57;;;;;;;;;10.33;9.00;;;;;;;;5121741;27;46288;-67
2022/09/01 11:16:37;;;;;;;;;7.00;5.33;;;;;;;;5119478;27;45363;-68
2022/09/01 11:19:25;;;;;;;;;9.75;9.25;;;;;;;;5117499;27;45505;-68
2022/09/01 11:22:26;;;;;;;;;10.50;9.25;;;;;;;;5116148;27;45275;-68
2022/09/01 11:25:05;;;;;;;;;9.00;9.00;;;;;;;;5057117;28;46196;-68
2022/09/01 11:27:49;;;;;;;;;10.67;9.00;;;;;;;;5107373;27;45496;-67
2022/09/01 11:30:32;;;;;;;;;4.00;4.00;;;;;;;;5118665;27;45343;-67
2022/09/01 11:33:01;;;;;;;;;8.67;7.33;;;;;;;;5117423;27;45310;-67
2022/09/01 11:35:27;;;;;;;;;6.67;6.33;;;;;;;;5118514;27;46403;-66
2022/09/01 11:38:00;;;;;;;;;6.33;6.33;;;;;;;;5109516;27;45457;-67
2022/09/01 11:40:27;;;;;;;;;9.00;7.33;;;;;;;;5112623;27;45360;-67
2022/09/01 11:42:54;;;;;;;;;8.00;8.00;;;;;;;;5113304;27;45433;-68
2022/09/01 11:45:31;;;;;;;;;7.50;7.50;;;;;;;;5118044;27;45606;-68
2022/09/01 11:47:59;;;;;;;;;7.67;7.67;;;;;;;;5118064;27;48423;-67
2022/09/01 11:50:27;;;;;;;;;5.00;5.00;;;;;;;;5119761;27;45319;-67
2022/09/01 11:52:52;;;;;;;;;6.33;6.33;;;;;;;;5113959;27;45172;-67
2022/09/01 11:55:27;;;;;;;;;7.67;7.67;;;;;;;;5124126;27;45459;-68
2022/09/01 11:57:52;;;;;;;;;7.33;7.33;;;;;;;;5114774;27;45487;-67
2022/09/01 12:00:24;;;;;;;;;9.00;6.00;;;;;;;;5117351;27;45370;-67
2022/09/01 12:02:51;;;;;;;;;7.00;7.00;;;;;;;;5119002;27;45486;-66
2022/09/01 12:05:25;;;;;;;;;4.00;4.00;;;;;;;;5121256;27;45673;-68
2022/09/01 12:07:51;;;;;;;;;6.67;6.67;;;;;;;;5117590;27;45721;-68
2022/09/01 12:10:18;;;;;;;;;6.00;6.00;;;;;;;;5124135;27;45500;-67
2022/09/01 12:12:44;;;;;;;;;7.00;7.00;;;;;;;;5117766;27;45538;-68
2022/09/01 12:15:18;;;;;;;;;7.00;6.00;;;;;;;;5123190;27;46423;-67
2022/09/01 12:17:44;;;;;;;;;7.00;7.00;;;;;;;;5111004;27;45781;-67
2022/09/01 12:20:24;;;;;;;;;10.67;10.00;;;;;;;;5117109;27;46794;-67
2022/09/01 12:22:50;;;;;;;;;6.67;6.67;;;;;;;;5117984;27;45388;-67
2022/09/01 12:25:26;;;;;;;;;7.00;6.67;;;;;;;;5119672;27;46218;-67
2022/09/01 12:27:52;;;;;;;;;8.00;8.00;;;;;;;;5111692;27;45373;-67
2022/09/01 12:30:18;;;;;;;;;6.33;6.33;;;;;;;;5120501;27;45487;-67
2022/09/01 12:32:44;;;;;;;;;8.33;8.00;;;;;;;;5121662;27;45560;-67
2022/09/01 12:35:21;;;;;;;;;6.00;6.00;;;;;;;;5124936;27;46123;-67
2022/09/01 12:37:46;;;;;;;;;7.00;7.00;;;;;;;;5119768;27;45698;-67
2022/09/01 12:40:29;;;;;;;;;8.00;7.00;;;;;;;;5122776;27;45442;-66
2022/09/01 12:42:55;;;;;;;;;8.00;6.33;;;;;;;;5121489;27;45451;-68
2022/09/01 12:45:39;;;;;;;;;6.33;6.33;;;;;;;;5118024;27;46608;-67
2022/09/01 12:48:05;;;;;;;;;7.00;7.00;;;;;;;;5120742;27;45221;-67
2022/09/01 12:50:30;;;;;;;;;5.67;5.67;;;;;;;;5125505;27;45303;-67
2022/09/01 12:52:57;;;;;;;;;8.33;8.33;;;;;;;;5122440;27;45396;-67
2022/09/01 12:55:26;;;;;;;;;9.25;9.25;;;;;;;;5122072;27;45520;-67
2022/09/01 12:57:53;;;;;;;;;8.25;7.00;;;;;;;;5122190;27;45461;-67
2022/09/01 13:00:20;;;;;;;;;6.00;6.00;;;;;;;;5121209;27;45208;-67
2022/09/01 13:03:09;;;;;;;;;10.33;7.33;;;;;;;;5114011;27;45470;-67
2022/09/01 13:05:40;;;;;;;;;7.25;7.25;;;;;;;;5106659;27;45486;-67
2022/09/01 13:08:08;;;;;;;;;6.00;6.00;;;;;;;;5118678;27;45453;-67
2022/09/01 13:10:40;;;;;;;;;5.33;5.00;;;;;;;;5116200;27;45368;-67
2022/09/01 13:13:06;;;;;;;;;7.00;7.00;;;;;;;;5114862;27;45650;-67
2022/09/01 13:15:33;;;;;;;;;6.00;6.00;;;;;;;;5109259;27;45314;-67
2022/09/01 13:17:58;;;;;;;;;5.00;5.00;;;;;;;;5118048;27;45338;-67
2022/09/01 13:20:23;;;;;;;;;5.00;5.00;;;;;;;;5111884;27;45283;-67
2022/09/01 13:22:48;;;;;;;;;7.75;5.25;;;;;;;;5117981;27;45367;-67
2022/09/01 13:25:16;;;;;;;;;5.67;5.67;;;;;;;;5119299;27;47140;-67
2022/09/01 13:27:43;;;;;;;;;7.67;6.00;;;;;;;;5118546;27;45408;-68
2022/09/01 13:30:09;;;;;;;;;5.00;5.00;;;;;;;;5117909;27;45456;-67
2022/09/01 13:32:34;;;;;;;;;4.67;3.67;;;;;;;;5118906;27;45395;-67
2022/09/01 13:34:59;;;;;;;;;11.33;9.00;;;;;;;;5123457;27;45224;-67
2022/09/01 13:37:24;;;;;;;;;8.67;6.33;;;;;;;;5111944;27;45366;-69
2022/09/01 13:39:50;;;;;;;;;9.67;7.67;;;;;;;;5116981;27;45302;-67
2022/09/01 13:42:15;;;;;;;;;8.00;5.67;;;;;;;;5122026;27;45855;-66
2022/09/01 13:44:40;;;;;;;;;9.00;6.00;;;;;;;;5120908;27;45316;-66
2022/09/01 13:47:05;;;;;;;;;10.33;8.33;;;;;;;;5123031;27;45408;-66
2022/09/01 13:49:31;;;;;;;;;6.67;6.00;;;;;;;;5123288;27;45332;-66
2022/09/01 13:51:56;;;;;;;;;6.33;6.33;;;;;;;;5113712;27;45556;-66
2022/09/01 13:54:21;;;;;;;;;6.50;5.50;;;;;;;;5111261;27;46311;-66
2022/09/01 13:56:47;;;;;;;;;6.33;6.00;;;;;;;;5113370;27;45497;-66
2022/09/01 13:59:12;;;;;;;;;6.25;6.25;;;;;;;;5119278;27;45368;-66
2022/09/01 14:01:40;;;;;;;;;6.25;5.50;;;;;;;;5119759;27;45321;-66
2022/09/01 14:04:06;;;;;;;;;5.33;4.33;;;;;;;;5113832;27;45458;-67
2022/09/01 14:06:32;;;;;;;;;4.33;4.33;;;;;;;;5116341;27;45501;-66
2022/09/01 14:08:58;;;;;;;;;5.50;5.50;;;;;;;;5119660;27;45414;-66
2022/09/01 14:11:24;;;;;;;;;4.25;4.25;;;;;;;;5120469;27;45217;-67
2022/09/01 14:13:49;;;;;;;;;4.25;4.25;;;;;;;;5118489;27;45580;-66
2022/09/01 14:16:14;;;;;;;;;5.50;5.50;;;;;;;;5118765;27;45390;-67
2022/09/01 14:18:41;;;;;;;;;7.25;7.25;;;;;;;;5116937;27;45305;-67
2022/09/01 14:21:09;;;;;;;;;6.00;6.00;;;;;;;;5109509;27;45557;-67
2022/09/01 14:23:35;;;;;;;;;3.25;3.25;;;;;;;;5112154;27;45387;-67
2022/09/01 14:26:00;;;;;;;;;7.00;7.00;;;;;;;;5105102;27;45311;-67
2022/09/01 14:28:25;;;;;;;;;6.75;6.75;;;;;;;;5116129;27;45508;-67
2022/09/01 14:30:50;;;;;;;;;5.00;5.00;;;;;;;;5119583;27;45576;-67
2022/09/01 14:33:16;;;;;;;;;5.50;5.50;;;;;;;;5104716;27;45524;-67
2022/09/01 14:35:44;;;;;;;;;11.00;9.00;;;;;;;;5120552;27;45381;-67